Time,TemperatureF,DewpointF,PressureIn,WindDirection,WindDirectionDegrees,WindSpeedMPH,WindSpeedGustMPH,Humidity,HourlyPrecipIn,Conditions,Clouds,dailyrainin,SolarRadiationWatts/m^2,SoftwareType,DateUTC
2013-05-15 00:00:00,49.3,41.0,29.85,NNE,13,0.0,0.0,73,0.00,CLR,OVC,0.00,0.0,WeatherDisplay:10.37,2013-05-14 22:00:00,
2013-05-15 00:10:00,48.2,39.9,29.85,WNW,287,0.0,0.0,73,0.00,CLR,OVC,0.00,0.0,WeatherDisplay:10.37,2013-05-14 22:10:00,
2013-05-15 00:20:00,46.9,38.7,29.85,South,170,0.0,0.0,73,0.00,CLR,OVC,0.00,0.0,WeatherDisplay:10.37,2013-05-14 22:20:00,
2013-05-15 00:30:00,46.9,38.7,29.85,South,170,0.0,0.0,73,0.00,CLR,OVC,0.00,0.0,WeatherDisplay:10.37,2013-05-14 22:30:00,
2013-05-15 00:40:00,48.9,40.6,29.85,South,175,0.0,0.0,73,0.00,CLR,OVC,0.00,0.0,WeatherDisplay:10.37,2013-05-14 22:40:00,
2013-05-15 00:50:00,50.7,40.9,29.85,SSW,204,0.0,2.0,69,0.00,CLR,OVC,0.00,0.0,WeatherDisplay:10.37,2013-05-14 22:50:00,
2013-05-15 01:00:00,50.7,40.9,29.85,SSW,207,0.0,0.0,69,0.00,CLR,OVC,0.00,0.0,WeatherDisplay:10.37,2013-05-14 23:00:00,
2013-05-15 01:10:00,50.7,40.5,29.85,SW,228,0.0,0.0,68,0.00,CLR,OVC,0.00,0.0,WeatherDisplay:10.37,2013-05-14 23:10:00,
2013-05-15 01:20:00,50.2,40.4,29.85,SSW,205,0.0,0.0,69,0.00,CLR,OVC,0.00,0.0,WeatherDisplay:10.37,2013-05-14 23:20:00,
2013-05-15 01:30:00,50.2,40.4,29.83,SSW,205,0.0,0.0,69,0.00,CLR,OVC,0.00,0.0,WeatherDisplay:10.37,2013-05-14 23:30:00,
2013-05-15 01:40:00,49.8,40.4,29.83,SSW,205,0.0,0.0,70,0.00,CLR,OVC,0.00,0.0,WeatherDisplay:10.37,2013-05-14 23:40:00,
2013-05-15 01:50:00,49.5,40.1,29.83,SSW,208,0.0,0.0,70,0.00,CLR,OVC,0.00,0.0,WeatherDisplay:10.37,2013-05-14 23:50:00,
2013-05-15 02:00:00,49.8,40.4,29.83,SW,229,0.0,0.0,70,0.00,CLR,OVC,0.00,0.0,WeatherDisplay:10.37,2013-05-15 00:00:00,
2013-05-15 02:10:00,50.0,40.6,29.83,South,187,1.0,1.0,70,0.00,CLR,OVC,0.00,0.0,WeatherDisplay:10.37,2013-05-15 00:10:00,
2013-05-15 02:20:00,50.4,40.9,29.83,South,181,2.0,3.0,70,0.00,CLR,OVC,0.00,0.0,WeatherDisplay:10.37,2013-05-15 00:20:00,
2013-05-15 02:30:00,50.4,40.6,29.83,South,182,3.0,3.0,69,0.00,CLR,OVC,0.00,0.0,WeatherDisplay:10.37,2013-05-15 00:30:00,
2013-05-15 02:40:00,50.0,40.6,29.83,SW,216,3.0,3.0,70,0.00,CLR,OVC,0.00,0.0,WeatherDisplay:10.37,2013-05-15 00:40:00,
2013-05-15 02:50:00,50.0,40.6,29.83,South,184,5.0,5.0,70,0.00,CLR,OVC,0.00,0.0,WeatherDisplay:10.37,2013-05-15 00:50:00,
2013-05-15 03:00:00,50.2,40.8,29.83,South,188,3.0,5.0,70,0.00,CLR,OVC,0.00,0.0,WeatherDisplay:10.37,2013-05-15 01:00:00,
2013-05-15 03:10:00,49.8,40.4,29.83,SW,214,1.0,2.0,70,0.00,CLR,OVC,0.00,0.0,WeatherDisplay:10.37,2013-05-15 01:10:00,
2013-05-15 03:20:00,50.2,40.8,29.80,SW,229,0.0,1.0,70,0.00,CLR,OVC,0.00,0.0,WeatherDisplay:10.37,2013-05-15 01:20:00,
2013-05-15 03:30:00,50.0,40.6,29.80,SW,232,0.0,0.0,70,0.00,CLR,OVC,0.00,0.0,WeatherDisplay:10.37,2013-05-15 01:30:00,
2013-05-15 03:40:00,50.0,40.6,29.80,West,275,0.0,0.0,70,0.00,CLR,OVC,0.00,0.0,WeatherDisplay:10.37,2013-05-15 01:40:00,
2013-05-15 03:50:00,50.4,40.6,29.80,WNW,282,2.0,3.0,69,0.00,CLR,OVC,0.00,0.0,WeatherDisplay:10.37,2013-05-15 01:50:00,
2013-05-15 04:00:00,50.2,40.4,29.80,WNW,287,0.0,2.0,69,0.00,CLR,OVC,0.00,0.0,WeatherDisplay:10.37,2013-05-15 02:00:00,
2013-05-15 04:10:00,50.4,40.6,29.80,WSW,250,3.0,3.0,69,0.00,CLR,OVC,0.00,0.0,WeatherDisplay:10.37,2013-05-15 02:10:00,
2013-05-15 04:20:00,50.0,39.8,29.80,WSW,246,2.0,3.0,68,0.00,CLR,OVC,0.00,0.0,WeatherDisplay:10.37,2013-05-15 02:20:00,
2013-05-15 04:30:00,49.8,39.7,29.80,WSW,249,0.0,2.0,68,0.00,CLR,OVC,0.00,0.0,WeatherDisplay:10.37,2013-05-15 02:30:00,
2013-05-15 04:40:00,50.0,39.8,29.80,SSW,213,2.0,2.0,68,0.00,CLR,OVC,0.00,0.0,WeatherDisplay:10.37,2013-05-15 02:40:00,
2013-05-15 04:50:00,50.0,39.8,29.77,SSW,200,3.0,3.0,68,0.00,CLR,OVC,0.00,0.0,WeatherDisplay:10.37,2013-05-15 02:50:00,
2013-05-15 05:00:00,50.0,39.8,29.77,SSW,201,3.0,3.0,68,0.00,OVC,OVC,0.00,0.0,WeatherDisplay:10.37,2013-05-15 03:00:00,
2013-05-15 05:10:00,50.0,39.5,29.77,SSW,209,0.0,5.0,67,0.00,OVC,OVC,0.00,0.0,WeatherDisplay:10.37,2013-05-15 03:10:00,
2013-05-15 05:20:00,49.8,39.7,29.80,SW,221,1.0,1.0,68,0.00,OVC,OVC,0.00,0.0,WeatherDisplay:10.37,2013-05-15 03:20:00,
2013-05-15 05:30:00,49.5,39.0,29.80,SW,223,3.0,3.0,67,0.00,OVC,OVC,0.00,0.0,WeatherDisplay:10.37,2013-05-15 03:30:00,
2013-05-15 05:40:00,49.6,39.5,29.80,South,176,2.0,3.0,68,0.00,OVC,OVC,0.00,0.0,WeatherDisplay:10.37,2013-05-15 03:40:00,
2013-05-15 05:50:00,50.0,39.8,29.80,SSE,163,1.0,2.0,68,0.00,OVC,OVC,0.00,0.0,WeatherDisplay:10.37,2013-05-15 03:50:00,
2013-05-15 06:00:00,50.2,40.0,29.80,SSE,149,3.0,3.0,68,0.00,OVC,OVC,0.00,0.0,WeatherDisplay:10.37,2013-05-15 04:00:00,
2013-05-15 06:10:00,50.4,39.8,29.80,South,175,5.0,5.0,67,0.00,OVC,OVC,0.00,0.0,WeatherDisplay:10.37,2013-05-15 04:10:00,
2013-05-15 06:20:00,51.6,40.6,29.80,South,184,1.0,5.0,66,0.00,OVC,OVC,0.00,0.0,WeatherDisplay:10.37,2013-05-15 04:20:00,
2013-05-15 06:30:00,52.0,41.0,29.77,South,185,1.0,1.0,66,0.00,OVC,OVC,0.00,0.0,WeatherDisplay:10.37,2013-05-15 04:30:00,
2013-05-15 06:40:00,53.2,41.8,29.77,South,189,0.0,1.0,65,0.00,OVC,OVC,0.00,0.0,WeatherDisplay:10.37,2013-05-15 04:40:00,
2013-05-15 06:50:00,54.1,41.8,29.80,SSW,207,3.0,3.0,63,0.00,OVC,OVC,0.00,0.0,WeatherDisplay:10.37,2013-05-15 04:50:00,
2013-05-15 07:00:00,54.7,42.3,29.77,SW,217,1.0,3.0,63,0.00,OVC,OVC,0.00,0.0,WeatherDisplay:10.37,2013-05-15 05:00:00,
2013-05-15 07:10:00,55.9,42.7,29.77,SSW,210,2.0,3.0,61,0.00,OVC,OVC,0.00,0.0,WeatherDisplay:10.37,2013-05-15 05:10:00,
2013-05-15 07:20:00,56.8,43.1,29.77,SW,217,5.0,5.0,60,0.00,OVC,OVC,0.00,0.0,WeatherDisplay:10.37,2013-05-15 05:20:00,
2013-05-15 07:30:00,56.8,43.1,29.77,WSW,239,3.0,5.0,60,0.00,OVC,OVC,0.00,0.0,WeatherDisplay:10.37,2013-05-15 05:30:00,
2013-05-15 07:40:00,57.9,44.1,29.77,WNW,288,3.0,5.0,60,0.00,OVC,OVC,0.00,0.0,WeatherDisplay:10.37,2013-05-15 05:40:00,
2013-05-15 07:50:00,59.0,44.7,29.77,WNW,299,0.0,5.0,59,0.00,OVC,OVC,0.00,0.0,WeatherDisplay:10.37,2013-05-15 05:50:00,
2013-05-15 08:00:00,59.0,44.2,29.77,SW,228,1.0,1.0,58,0.00,OVC,OVC,0.00,0.0,WeatherDisplay:10.37,2013-05-15 06:00:00,
2013-05-15 08:10:00,60.1,45.2,29.77,SSE,160,0.0,1.0,58,0.00,OVC,OVC,0.00,0.0,WeatherDisplay:10.37,2013-05-15 06:10:00,
2013-05-15 08:20:00,60.6,45.3,29.77,South,171,1.0,6.0,57,0.00,OVC,OVC,0.00,0.0,WeatherDisplay:10.37,2013-05-15 06:20:00,
2013-05-15 08:30:00,60.6,45.3,29.77,South,190,7.0,7.0,57,0.00,OVC,OVC,0.00,0.0,WeatherDisplay:10.37,2013-05-15 06:30:00,
2013-05-15 08:40:00,62.2,46.8,29.77,SSW,202,5.0,7.0,57,0.00,OVC,OVC,0.00,0.0,WeatherDisplay:10.37,2013-05-15 06:40:00,
2013-05-15 08:50:00,63.7,47.2,29.77,SW,227,3.0,5.0,55,0.00,OVC,OVC,0.00,0.0,WeatherDisplay:10.37,2013-05-15 06:50:00,
2013-05-15 09:00:00,63.9,47.4,29.77,SSW,210,3.0,3.0,55,0.00,OVC,OVC,0.00,0.0,WeatherDisplay:10.37,2013-05-15 07:00:00,
2013-05-15 09:10:00,64.4,47.4,29.77,SSW,192,1.0,3.0,54,0.00,OVC,OVC,0.00,0.0,WeatherDisplay:10.37,2013-05-15 07:10:00,
2013-05-15 09:20:00,65.8,48.2,29.77,SW,218,3.0,6.0,53,0.00,OVC,OVC,0.00,0.0,WeatherDisplay:10.37,2013-05-15 07:20:00,
2013-05-15 09:30:00,66.2,48.0,29.77,SW,230,5.0,5.0,52,0.00,OVC,OVC,0.00,0.0,WeatherDisplay:10.37,2013-05-15 07:30:00,
2013-05-15 09:40:00,66.6,48.4,29.77,SW,230,8.0,8.0,52,0.00,OVC,OVC,0.00,0.0,WeatherDisplay:10.37,2013-05-15 07:40:00,
2013-05-15 09:50:00,66.4,48.2,29.77,East,83,6.0,8.0,52,0.00,OVC,OVC,0.00,0.0,WeatherDisplay:10.37,2013-05-15 07:50:00,
2013-05-15 10:00:00,67.6,49.4,29.77,ENE,67,2.0,6.0,52,0.00,OVC,OVC,0.00,0.0,WeatherDisplay:10.37,2013-05-15 08:00:00,
2013-05-15 10:10:00,67.5,49.2,29.77,East,95,6.0,8.0,52,0.00,OVC,OVC,0.00,0.0,WeatherDisplay:10.37,2013-05-15 08:10:00,
2013-05-15 10:20:00,66.9,48.2,29.74,East,99,8.0,8.0,51,0.00,OVC,OVC,0.00,0.0,WeatherDisplay:10.37,2013-05-15 08:20:00,
2013-05-15 10:30:00,66.9,48.2,29.74,East,83,7.0,8.0,51,0.00,OVC,OVC,0.00,0.0,WeatherDisplay:10.37,2013-05-15 08:30:00,
2013-05-15 10:40:00,67.1,48.4,29.74,East,82,9.0,10.0,51,0.00,OVC,OVC,0.00,0.0,WeatherDisplay:10.37,2013-05-15 08:40:00,
2013-05-15 10:50:00,67.6,48.9,29.74,ESE,105,6.0,9.0,51,0.00,OVC,OVC,0.00,0.0,WeatherDisplay:10.37,2013-05-15 08:50:00,
2013-05-15 11:00:00,69.1,50.2,29.74,ESE,102,5.0,6.0,51,0.00,OVC,OVC,0.00,0.0,WeatherDisplay:10.37,2013-05-15 09:00:00,
2013-05-15 11:10:00,68.5,49.7,29.74,ENE,75,7.0,7.0,51,0.00,OVC,OVC,0.00,0.0,WeatherDisplay:10.37,2013-05-15 09:10:00,
2013-05-15 11:20:00,69.4,50.0,29.74,ENE,78,3.0,7.0,50,0.00,OVC,OVC,0.00,0.0,WeatherDisplay:10.37,2013-05-15 09:20:00,
2013-05-15 11:30:00,70.3,49.7,29.74,East,89,8.0,8.0,48,0.00,OVC,OVC,0.00,0.0,WeatherDisplay:10.37,2013-05-15 09:30:00,
2013-05-15 11:40:00,70.7,51.1,29.74,East,96,5.0,8.0,50,0.00,OVC,OVC,0.00,0.0,WeatherDisplay:10.37,2013-05-15 09:40:00,
2013-05-15 11:50:00,70.2,50.1,29.74,East,85,9.0,9.0,49,0.00,OVC,OVC,0.00,0.0,WeatherDisplay:10.37,2013-05-15 09:50:00,
2013-05-15 12:00:00,69.3,49.8,29.74,ENE,77,6.0,9.0,50,0.00,OVC,OVC,0.00,0.0,WeatherDisplay:10.37,2013-05-15 10:00:00,
2013-05-15 12:10:00,70.5,49.9,29.74,East,85,6.0,10.0,48,0.00,OVC,OVC,0.00,0.0,WeatherDisplay:10.37,2013-05-15 10:10:00,
2013-05-15 12:20:00,70.5,50.4,29.74,East,90,8.0,8.0,49,0.00,OVC,OVC,0.00,0.0,WeatherDisplay:10.37,2013-05-15 10:20:00,
2013-05-15 12:30:00,70.2,49.5,29.74,East,93,7.0,8.0,48,0.00,OVC,OVC,0.00,0.0,WeatherDisplay:10.37,2013-05-15 10:30:00,
2013-05-15 12:40:00,71.1,50.4,29.74,ESE,123,7.0,13.0,48,0.00,OVC,OVC,0.00,0.0,WeatherDisplay:10.37,2013-05-15 10:40:00,
2013-05-15 12:50:00,72.9,52.0,29.71,SE,129,8.0,8.0,48,0.00,OVC,OVC,0.00,0.0,WeatherDisplay:10.37,2013-05-15 10:50:00,
2013-05-15 13:00:00,71.2,51.1,29.71,ESE,118,7.0,8.0,49,0.00,OVC,OVC,0.00,0.0,WeatherDisplay:10.37,2013-05-15 11:00:00,
2013-05-15 13:10:00,71.6,50.9,29.71,ESE,115,7.0,8.0,48,0.00,OVC,OVC,0.00,0.0,WeatherDisplay:10.37,2013-05-15 11:10:00,
2013-05-15 13:20:00,72.0,51.8,29.71,SE,136,8.0,8.0,49,0.00,OVC,OVC,0.00,0.0,WeatherDisplay:10.37,2013-05-15 11:20:00,
2013-05-15 13:30:00,71.1,50.4,29.71,SE,134,8.0,8.0,48,0.00,OVC,OVC,0.00,0.0,WeatherDisplay:10.37,2013-05-15 11:30:00,
2013-05-15 13:40:00,72.3,52.1,29.71,ESE,112,8.0,8.0,49,0.00,OVC,OVC,0.00,0.0,WeatherDisplay:10.37,2013-05-15 11:40:00,
2013-05-15 13:50:00,72.3,51.5,29.71,SE,128,13.0,13.0,48,0.00,OVC,OVC,0.00,0.0,WeatherDisplay:10.37,2013-05-15 11:50:00,
2013-05-15 14:00:00,72.0,51.8,29.71,SE,138,7.0,13.0,49,0.00,OVC,OVC,0.00,0.0,WeatherDisplay:10.37,2013-05-15 12:00:00,
2013-05-15 14:10:00,72.7,51.9,29.71,ESE,115,8.0,8.0,48,0.00,OVC,OVC,0.00,0.0,WeatherDisplay:10.37,2013-05-15 12:10:00,
2013-05-15 14:20:00,72.3,51.5,29.71,ESE,113,7.0,10.0,48,0.00,OVC,OVC,0.00,0.0,WeatherDisplay:10.37,2013-05-15 12:20:00,
2013-05-15 14:30:00,72.7,51.9,29.71,ESE,105,7.0,7.0,48,0.00,OVC,OVC,0.00,0.0,WeatherDisplay:10.37,2013-05-15 12:30:00,
2013-05-15 14:40:00,72.9,52.6,29.71,ESE,120,7.0,7.0,49,0.00,OVC,OVC,0.00,0.0,WeatherDisplay:10.37,2013-05-15 12:40:00,
2013-05-15 14:50:00,74.7,53.7,29.71,SSE,152,7.0,7.0,48,0.00,OVC,OVC,0.00,0.0,WeatherDisplay:10.37,2013-05-15 12:50:00,
2013-05-15 15:00:00,74.1,53.2,29.71,SSE,148,5.0,7.0,48,0.00,OVC,OVC,0.00,0.0,WeatherDisplay:10.37,2013-05-15 13:00:00,
2013-05-15 15:10:00,73.8,52.8,29.71,ESE,123,7.0,7.0,48,0.00,OVC,OVC,0.00,0.0,WeatherDisplay:10.37,2013-05-15 13:10:00,
2013-05-15 15:20:00,73.0,51.0,29.71,SE,133,5.0,7.0,46,0.00,OVC,OVC,0.00,0.0,WeatherDisplay:10.37,2013-05-15 13:20:00,
2013-05-15 15:30:00,74.3,52.2,29.71,ESE,105,6.0,6.0,46,0.00,OVC,OVC,0.00,0.0,WeatherDisplay:10.37,2013-05-15 13:30:00,
2013-05-15 15:40:00,73.6,50.9,29.71,SE,132,9.0,9.0,45,0.00,OVC,OVC,0.00,0.0,WeatherDisplay:10.37,2013-05-15 13:40:00,
2013-05-15 15:50:00,73.8,51.7,29.68,SE,132,12.0,12.0,46,0.00,OVC,OVC,0.00,0.0,WeatherDisplay:10.37,2013-05-15 13:50:00,
2013-05-15 16:00:00,73.2,51.2,29.68,ESE,123,10.0,12.0,46,0.00,OVC,OVC,0.00,0.0,WeatherDisplay:10.37,2013-05-15 14:00:00,
2013-05-15 16:10:00,72.3,51.0,29.68,SE,130,8.0,12.0,47,0.00,OVC,OVC,0.00,0.0,WeatherDisplay:10.37,2013-05-15 14:10:00,
2013-05-15 16:20:00,72.5,51.7,29.68,SE,129,7.0,9.0,48,0.00,OVC,OVC,0.00,0.0,WeatherDisplay:10.37,2013-05-15 14:20:00,
2013-05-15 16:30:00,72.9,51.4,29.68,ESE,109,8.0,8.0,47,0.00,OVC,OVC,0.00,0.0,WeatherDisplay:10.37,2013-05-15 14:30:00,
2013-05-15 16:40:00,72.3,50.4,29.68,ESE,115,9.0,9.0,46,0.00,OVC,OVC,0.00,0.0,WeatherDisplay:10.37,2013-05-15 14:40:00,
2013-05-15 16:50:00,72.5,50.5,29.68,SE,143,9.0,14.0,46,0.00,OVC,OVC,0.00,0.0,WeatherDisplay:10.37,2013-05-15 14:50:00,
2013-05-15 17:00:00,72.0,50.6,29.68,South,174,8.0,9.0,47,0.00,OVC,OVC,0.00,0.0,WeatherDisplay:10.37,2013-05-15 15:00:00,
2013-05-15 17:10:00,72.1,50.8,29.68,SW,225,9.0,9.0,47,0.00,OVC,OVC,0.00,0.0,WeatherDisplay:10.37,2013-05-15 15:10:00,
2013-05-15 17:20:00,72.3,50.4,29.68,WSW,239,10.0,10.0,46,0.00,OVC,OVC,0.00,0.0,WeatherDisplay:10.37,2013-05-15 15:20:00,
2013-05-15 17:30:00,71.6,50.3,29.68,SW,227,8.0,10.0,47,0.00,OVC,OVC,0.00,0.0,WeatherDisplay:10.37,2013-05-15 15:30:00,
2013-05-15 17:40:00,73.4,51.9,29.68,SSW,211,6.0,8.0,47,0.00,OVC,OVC,0.00,0.0,WeatherDisplay:10.37,2013-05-15 15:40:00,
2013-05-15 17:50:00,73.0,51.6,29.68,SSW,195,3.0,7.0,47,0.00,OVC,OVC,0.00,0.0,WeatherDisplay:10.37,2013-05-15 15:50:00,
2013-05-15 18:00:00,72.7,51.3,29.68,SSE,147,6.0,6.0,47,0.00,OVC,OVC,0.00,0.0,WeatherDisplay:10.37,2013-05-15 16:00:00,
2013-05-15 18:10:00,71.6,50.3,29.68,SE,127,8.0,8.0,47,0.00,OVC,OVC,0.00,0.0,WeatherDisplay:10.37,2013-05-15 16:10:00,
2013-05-15 18:20:00,71.4,50.1,29.68,ESE,117,7.0,13.0,47,0.00,OVC,OVC,0.00,0.0,WeatherDisplay:10.37,2013-05-15 16:20:00,
2013-05-15 18:40:00,71.2,50.0,29.65,East,87,6.0,8.0,47,0.00,OVC,OVC,0.00,0.0,WeatherDisplay:10.37,2013-05-15 16:40:00,
2013-05-15 18:50:00,70.5,50.4,29.68,ENE,77,5.0,6.0,49,0.00,OVC,OVC,0.00,0.0,WeatherDisplay:10.37,2013-05-15 16:50:00,
2013-05-15 19:00:00,70.0,49.9,29.65,East,79,7.0,7.0,49,0.00,OVC,OVC,0.00,0.0,WeatherDisplay:10.37,2013-05-15 17:00:00,
2013-05-15 19:10:00,69.6,49.6,29.65,East,85,7.0,7.0,49,0.00,OVC,OVC,0.00,0.0,WeatherDisplay:10.37,2013-05-15 17:10:00,
2013-05-15 19:20:00,68.2,49.4,29.65,East,85,2.0,7.0,51,0.00,OVC,OVC,0.00,0.0,WeatherDisplay:10.37,2013-05-15 17:20:00,
2013-05-15 19:30:00,68.0,49.2,29.65,ESE,103,9.0,9.0,51,0.00,OVC,OVC,0.00,0.0,WeatherDisplay:10.37,2013-05-15 17:30:00,
2013-05-15 19:40:00,66.7,48.5,29.65,ESE,110,6.0,9.0,52,0.00,OVC,OVC,0.00,0.0,WeatherDisplay:10.37,2013-05-15 17:40:00,
2013-05-15 19:50:00,65.7,48.6,29.65,ESE,120,5.0,7.0,54,0.00,OVC,OVC,0.00,0.0,WeatherDisplay:10.37,2013-05-15 17:50:00,
2013-05-15 20:00:00,65.1,48.5,29.65,ESE,109,7.0,7.0,55,0.00,OVC,OVC,0.00,0.0,WeatherDisplay:10.37,2013-05-15 18:00:00,
2013-05-15 20:10:00,64.8,48.2,29.65,ESE,112,7.0,7.0,55,0.00,OVC,OVC,0.00,0.0,WeatherDisplay:10.37,2013-05-15 18:10:00,
2013-05-15 20:20:00,63.9,47.9,29.65,ESE,106,6.0,7.0,56,0.00,OVC,OVC,0.00,0.0,WeatherDisplay:10.37,2013-05-15 18:20:00,
2013-05-15 20:30:00,63.7,48.2,29.65,ESE,105,3.0,6.0,57,0.00,OVC,OVC,0.00,0.0,WeatherDisplay:10.37,2013-05-15 18:30:00,
2013-05-15 20:40:00,63.1,47.7,29.65,East,96,5.0,6.0,57,0.00,OVC,OVC,0.00,0.0,WeatherDisplay:10.37,2013-05-15 18:40:00,
2013-05-15 20:50:00,62.8,47.8,29.68,ENE,73,6.0,6.0,58,0.00,OVC,OVC,0.00,0.0,WeatherDisplay:10.37,2013-05-15 18:50:00,
2013-05-15 21:00:00,62.4,47.4,29.68,ENE,75,5.0,6.0,58,0.00,CLR,OVC,0.00,0.0,WeatherDisplay:10.37,2013-05-15 19:00:00,
2013-05-15 21:10:00,62.1,47.6,29.68,East,80,6.0,6.0,59,0.00,CLR,OVC,0.00,0.0,WeatherDisplay:10.37,2013-05-15 19:10:00,
2013-05-15 21:20:00,61.9,47.4,29.68,ESE,103,3.0,7.0,59,0.00,CLR,OVC,0.00,0.0,WeatherDisplay:10.37,2013-05-15 19:20:00,
2013-05-15 21:30:00,61.7,47.2,29.68,ESE,113,3.0,3.0,59,0.00,CLR,OVC,0.00,0.0,WeatherDisplay:10.37,2013-05-15 19:30:00,
2013-05-15 21:40:00,61.7,47.2,29.68,SSW,205,6.0,6.0,59,0.00,CLR,OVC,0.00,0.0,WeatherDisplay:10.37,2013-05-15 19:40:00,
2013-05-15 21:50:00,61.5,47.5,29.68,SSW,199,6.0,6.0,60,0.00,CLR,OVC,0.00,0.0,WeatherDisplay:10.37,2013-05-15 19:50:00,
2013-05-15 22:00:00,61.5,47.5,29.68,SSW,205,7.0,7.0,60,0.00,CLR,OVC,0.00,0.0,WeatherDisplay:10.37,2013-05-15 20:00:00,
2013-05-15 22:10:00,61.0,47.0,29.68,SSW,203,6.0,6.0,60,0.00,CLR,OVC,0.00,0.0,WeatherDisplay:10.37,2013-05-15 20:10:00,
2013-05-15 22:20:00,60.8,47.3,29.68,SW,219,5.0,8.0,61,0.00,CLR,OVC,0.00,0.0,WeatherDisplay:10.37,2013-05-15 20:20:00,
2013-05-15 22:30:00,60.8,47.3,29.68,SSW,210,7.0,7.0,61,0.00,CLR,OVC,0.00,0.0,WeatherDisplay:10.37,2013-05-15 20:30:00,
2013-05-15 22:40:00,61.0,47.0,29.68,SW,230,5.0,7.0,60,0.00,CLR,OVC,0.00,0.0,WeatherDisplay:10.37,2013-05-15 20:40:00,
2013-05-15 22:50:00,60.8,47.3,29.68,SW,224,7.0,7.0,61,0.00,CLR,OVC,0.00,0.0,WeatherDisplay:10.37,2013-05-15 20:50:00,
2013-05-15 23:00:00,60.8,47.3,29.68,SW,221,7.0,7.0,61,0.00,CLR,OVC,0.00,0.0,WeatherDisplay:10.37,2013-05-15 21:00:00,
2013-05-15 23:20:00,60.1,46.6,29.65,WNW,284,6.0,6.0,61,0.00,CLR,OVC,0.00,0.0,WeatherDisplay:10.37,2013-05-15 21:20:00,
2013-05-15 23:30:00,60.3,46.8,29.65,WNW,282,8.0,8.0,61,0.00,CLR,OVC,0.00,0.0,WeatherDisplay:10.37,2013-05-15 21:30:00,
2013-05-15 23:40:00,60.4,46.9,29.65,West,265,9.0,9.0,61,0.00,CLR,OVC,0.00,0.0,WeatherDisplay:10.37,2013-05-15 21:40:00,
2013-05-15 23:50:00,60.1,46.6,29.65,SW,228,7.0,9.0,61,0.00,CLR,OVC,0.00,0.0,WeatherDisplay:10.37,2013-05-15 21:50:00,